Time,TemperatureF,DewpointF,PressureIn,WindDirection,WindDirectionDegrees,WindSpeedMPH,WindSpeedGustMPH,Humidity,HourlyPrecipIn,Conditions,Clouds,dailyrainin,SoftwareType,DateUTC
2013-07-12 00:00:00,65.9,61.0,30.02,ENE,74,0.0,1.0,84,0.00,,,0.00,weatherlink.com 1.10,2013-07-12 05:00:00,
2013-07-12 00:15:00,65.4,61.0,30.02,ENE,74,0.0,0.0,85,0.00,,,0.00,weatherlink.com 1.10,2013-07-12 05:15:00,
2013-07-12 00:30:00,64.6,60.0,30.02,ENE,74,0.0,1.0,86,0.00,,,0.00,weatherlink.com 1.10,2013-07-12 05:30:00,
2013-07-12 00:45:00,63.9,60.0,30.03,ENE,74,0.0,1.0,87,0.00,,,0.00,weatherlink.com 1.10,2013-07-12 05:45:00,
2013-07-12 01:00:00,63.6,60.0,30.03,ENE,74,0.0,1.0,87,0.00,,,0.00,weatherlink.com 1.10,2013-07-12 06:00:00,
2013-07-12 01:15:00,63.3,59.0,30.03,ENE,74,0.0,1.0,87,0.00,,,0.00,weatherlink.com 1.10,2013-07-12 06:15:00,
2013-07-12 01:30:00,62.8,59.0,30.03,ENE,74,0.0,0.0,88,0.00,,,0.00,weatherlink.com 1.10,2013-07-12 06:30:00,
2013-07-12 01:45:00,62.2,59.0,30.03,ENE,74,0.0,0.0,89,0.00,,,0.00,weatherlink.com 1.10,2013-07-12 06:45:00,
2013-07-12 02:00:00,61.5,59.0,30.03,ENE,74,0.0,1.0,90,0.00,,,0.00,weatherlink.com 1.10,2013-07-12 07:00:00,
2013-07-12 02:15:00,61.3,59.0,30.03,ENE,74,0.0,0.0,92,0.00,,,0.00,weatherlink.com 1.10,2013-07-12 07:15:00,
2013-07-12 02:30:00,60.9,59.0,30.03,ENE,74,0.0,0.0,92,0.00,,,0.00,weatherlink.com 1.10,2013-07-12 07:30:00,
2013-07-12 02:45:00,60.3,58.0,30.04,ENE,74,0.0,1.0,92,0.00,,,0.00,weatherlink.com 1.10,2013-07-12 07:45:00,
2013-07-12 03:00:00,60.1,58.0,30.03,ENE,74,0.0,1.0,93,0.00,,,0.00,weatherlink.com 1.10,2013-07-12 08:00:00,
2013-07-12 03:15:00,60.0,58.0,30.03,ENE,74,0.0,2.0,94,0.00,,,0.00,weatherlink.com 1.10,2013-07-12 08:15:00,
2013-07-12 03:30:00,59.8,58.0,30.03,ENE,74,0.0,1.0,93,0.00,,,0.00,weatherlink.com 1.10,2013-07-12 08:30:00,
2013-07-12 03:45:00,59.7,58.0,30.03,ENE,74,0.0,0.0,94,0.00,,,0.00,weatherlink.com 1.10,2013-07-12 08:45:00,
2013-07-12 04:00:00,59.5,58.0,30.03,ENE,74,0.0,1.0,95,0.00,,,0.00,weatherlink.com 1.10,2013-07-12 09:00:00,
2013-07-12 04:15:00,59.3,58.0,30.04,ENE,74,0.0,1.0,94,0.00,,,0.00,weatherlink.com 1.10,2013-07-12 09:15:00,
2013-07-12 04:30:00,59.1,57.0,30.04,ENE,74,0.0,0.0,94,0.00,,,0.00,weatherlink.com 1.10,2013-07-12 09:30:00,
2013-07-12 04:45:00,58.8,57.0,30.04,ENE,74,0.0,1.0,95,0.00,,,0.00,weatherlink.com 1.10,2013-07-12 09:45:00,
2013-07-12 05:00:00,58.6,57.0,30.05,ENE,74,0.0,0.0,95,0.00,,,0.00,weatherlink.com 1.10,2013-07-12 10:00:00,
2013-07-12 05:15:00,58.5,57.0,30.05,ENE,74,0.0,1.0,95,0.00,,,0.00,weatherlink.com 1.10,2013-07-12 10:15:00,
2013-07-12 05:30:00,58.5,57.0,30.05,ENE,74,0.0,1.0,95,0.00,,,0.00,weatherlink.com 1.10,2013-07-12 10:30:00,
2013-07-12 05:45:00,58.2,57.0,30.06,ENE,74,0.0,2.0,95,0.00,,,0.00,weatherlink.com 1.10,2013-07-12 10:45:00,
2013-07-12 06:00:00,58.2,57.0,30.06,ENE,74,1.0,2.0,96,0.00,,,0.00,weatherlink.com 1.10,2013-07-12 11:00:00,
2013-07-12 06:16:00,58.3,57.0,30.06,ENE,74,1.0,2.0,96,0.00,,,0.00,weatherlink.com 1.10,2013-07-12 11:16:00,
2013-07-12 06:31:00,58.7,58.0,30.06,ENE,74,1.0,3.0,96,0.00,,,0.00,weatherlink.com 1.10,2013-07-12 11:31:00,
2013-07-12 06:46:00,60.0,59.0,30.06,ENE,74,1.0,2.0,96,0.00,,,0.00,weatherlink.com 1.10,2013-07-12 11:46:00,
2013-07-12 07:01:00,61.4,60.0,30.06,ENE,74,0.0,2.0,94,0.00,,,0.00,weatherlink.com 1.10,2013-07-12 12:01:00,
2013-07-12 07:16:00,63.0,60.0,30.06,ENE,74,1.0,2.0,91,0.00,,,0.00,weatherlink.com 1.10,2013-07-12 12:16:00,
2013-07-12 07:31:00,64.2,61.0,30.07,ENE,61,0.0,3.0,90,0.00,,,0.00,weatherlink.com 1.10,2013-07-12 12:31:00,
2013-07-12 07:46:00,65.4,62.0,30.07,ESE,123,3.0,6.0,88,0.00,,,0.00,weatherlink.com 1.10,2013-07-12 12:46:00,
2013-07-12 08:01:00,67.0,63.0,30.08,ESE,103,7.0,7.0,86,0.00,,,0.00,weatherlink.com 1.10,2013-07-12 13:01:00,
2013-07-12 08:16:00,68.2,64.0,30.08,SE,140,0.0,6.0,85,0.00,,,0.00,weatherlink.com 1.10,2013-07-12 13:16:00,
2013-07-12 08:31:00,69.4,63.0,30.08,ESE,107,5.0,8.0,80,0.00,,,0.00,weatherlink.com 1.10,2013-07-12 13:31:00,
2013-07-12 08:46:00,70.7,63.0,30.08,SSE,153,5.0,12.0,77,0.00,,,0.00,weatherlink.com 1.10,2013-07-12 13:46:00,
2013-07-12 09:01:00,72.1,63.0,30.09,ESE,116,4.0,10.0,74,0.00,,,0.00,weatherlink.com 1.10,2013-07-12 14:01:00,
2013-07-12 09:16:00,73.7,63.0,30.09,SSE,165,6.0,9.0,70,0.00,,,0.00,weatherlink.com 1.10,2013-07-12 14:16:00,
2013-07-12 09:31:00,73.4,63.0,30.09,SSE,150,8.0,11.0,69,0.00,,,0.00,weatherlink.com 1.10,2013-07-12 14:31:00,
2013-07-12 09:47:00,74.5,62.0,30.09,SE,143,12.0,15.0,65,0.00,,,0.00,weatherlink.com 1.10,2013-07-12 14:47:00,
2013-07-12 10:02:00,75.3,63.0,30.08,SE,140,7.0,12.0,65,0.00,,,0.00,weatherlink.com 1.10,2013-07-12 15:02:00,
2013-07-12 10:17:00,75.5,62.0,30.09,ESE,117,8.0,12.0,64,0.00,,,0.00,weatherlink.com 1.10,2013-07-12 15:17:00,
2013-07-12 10:32:00,76.5,61.0,30.08,SE,136,8.0,12.0,59,0.00,,,0.00,weatherlink.com 1.10,2013-07-12 15:32:00,
2013-07-12 10:47:00,77.0,62.0,30.08,SE,132,9.0,14.0,60,0.00,,,0.00,weatherlink.com 1.10,2013-07-12 15:47:00,
2013-07-12 11:17:00,77.6,60.0,30.08,ESE,116,11.0,12.0,54,0.00,,,0.00,weatherlink.com 1.10,2013-07-12 16:17:00,
2013-07-12 11:32:00,78.4,59.0,30.08,SE,134,8.0,13.0,52,0.00,,,0.00,weatherlink.com 1.10,2013-07-12 16:32:00,
2013-07-12 11:47:00,78.0,59.0,30.08,NE,51,7.0,13.0,53,0.00,,,0.00,weatherlink.com 1.10,2013-07-12 16:47:00,
2013-07-12 12:02:00,78.0,61.0,30.07,ESE,119,5.0,10.0,56,0.00,,,0.00,weatherlink.com 1.10,2013-07-12 17:02:00,
2013-07-12 12:17:00,79.0,60.0,30.07,East,95,8.0,13.0,52,0.00,,,0.00,weatherlink.com 1.10,2013-07-12 17:17:00,
2013-07-12 12:32:00,80.0,60.0,30.07,SE,128,15.0,16.0,51,0.00,,,0.00,weatherlink.com 1.10,2013-07-12 17:32:00,
2013-07-12 12:47:00,79.9,58.0,30.06,SE,141,7.0,16.0,48,0.00,,,0.00,weatherlink.com 1.10,2013-07-12 17:47:00,
2013-07-12 13:02:00,80.1,60.0,30.06,East,82,2.0,10.0,51,0.00,,,0.00,weatherlink.com 1.10,2013-07-12 18:02:00,
2013-07-12 13:17:00,81.1,60.0,30.06,SE,142,7.0,13.0,49,0.00,,,0.00,weatherlink.com 1.10,2013-07-12 18:17:00,
2013-07-12 13:32:00,81.0,60.0,30.05,SE,139,8.0,10.0,49,0.00,,,0.00,weatherlink.com 1.10,2013-07-12 18:32:00,
2013-07-12 13:47:00,81.1,60.0,30.05,NNE,24,7.0,12.0,49,0.00,,,0.00,weatherlink.com 1.10,2013-07-12 18:47:00,
2013-07-12 14:02:00,81.0,60.0,30.05,ESE,121,9.0,12.0,49,0.00,,,0.00,weatherlink.com 1.10,2013-07-12 19:02:00,
2013-07-12 14:17:00,81.7,61.0,30.04,SE,134,11.0,14.0,50,0.00,,,0.00,weatherlink.com 1.10,2013-07-12 19:17:00,
2013-07-12 14:32:00,81.5,58.0,30.04,ENE,58,7.0,12.0,45,0.00,,,0.00,weatherlink.com 1.10,2013-07-12 19:32:00,
2013-07-12 15:02:00,82.5,60.0,30.03,ESE,103,4.0,10.0,47,0.00,,,0.00,weatherlink.com 1.10,2013-07-12 20:02:00,
2013-07-12 15:32:00,83.0,60.0,30.03,East,101,7.0,10.0,45,0.00,,,0.00,weatherlink.com 1.10,2013-07-12 20:32:00,
2013-07-12 15:47:00,82.7,59.0,30.03,East,95,7.0,10.0,45,0.00,,,0.00,weatherlink.com 1.10,2013-07-12 20:47:00,
2013-07-12 16:02:00,82.9,61.0,30.02,ENE,69,2.0,9.0,47,0.00,,,0.00,weatherlink.com 1.10,2013-07-12 21:02:00,
2013-07-12 16:18:00,83.7,61.0,30.02,ESE,117,8.0,12.0,47,0.00,,,0.00,weatherlink.com 1.10,2013-07-12 21:18:00,
2013-07-12 16:33:00,83.7,60.0,30.02,SSW,212,3.0,9.0,44,0.00,,,0.00,weatherlink.com 1.10,2013-07-12 21:33:00,
2013-07-12 16:48:00,83.8,60.0,30.01,ENE,76,0.0,12.0,45,0.00,,,0.00,weatherlink.com 1.10,2013-07-12 21:48:00,
2013-07-12 17:18:00,83.0,59.0,30.01,ENE,63,10.0,10.0,44,0.00,,,0.00,weatherlink.com 1.10,2013-07-12 22:18:00,
2013-07-12 17:33:00,82.9,59.0,30.01,SE,127,5.0,9.0,44,0.00,,,0.00,weatherlink.com 1.10,2013-07-12 22:33:00,
2013-07-12 17:48:00,82.9,57.0,30.01,East,98,6.0,9.0,42,0.00,,,0.00,weatherlink.com 1.10,2013-07-12 22:48:00,
2013-07-12 18:04:00,82.2,58.0,30.01,ESE,109,3.0,8.0,44,0.00,,,0.00,weatherlink.com 1.10,2013-07-12 23:04:00,
2013-07-12 18:18:00,82.0,60.0,30.00,ENE,76,3.0,8.0,47,0.00,,,0.00,weatherlink.com 1.10,2013-07-12 23:18:00,
2013-07-12 18:33:00,81.1,60.0,30.00,ESE,111,5.0,8.0,48,0.00,,,0.00,weatherlink.com 1.10,2013-07-12 23:33:00,
2013-07-12 18:48:00,80.7,60.0,30.00,ESE,123,4.0,7.0,49,0.00,,,0.00,weatherlink.com 1.10,2013-07-12 23:48:00,
2013-07-12 19:18:00,79.4,60.0,30.00,ESE,111,2.0,7.0,51,0.00,,,0.00,weatherlink.com 1.10,2013-07-13 00:18:00,
2013-07-12 19:33:00,78.7,61.0,30.00,East,99,2.0,5.0,54,0.00,,,0.00,weatherlink.com 1.10,2013-07-13 00:33:00,
2013-07-12 19:48:00,78.0,61.0,30.00,ESE,105,1.0,3.0,57,0.00,,,0.00,weatherlink.com 1.10,2013-07-13 00:48:00,
2013-07-12 20:03:00,77.3,62.0,30.00,ESE,123,2.0,4.0,59,0.00,,,0.00,weatherlink.com 1.10,2013-07-13 01:03:00,
2013-07-12 20:33:00,75.3,61.0,30.00,SE,126,2.0,4.0,61,0.00,,,0.00,weatherlink.com 1.10,2013-07-13 01:33:00,
2013-07-12 21:03:00,73.4,61.0,30.00,SE,126,1.0,3.0,66,0.00,,,0.00,weatherlink.com 1.10,2013-07-13 02:03:00,
2013-07-12 21:18:00,72.4,61.0,30.00,SE,126,2.0,4.0,68,0.00,,,0.00,weatherlink.com 1.10,2013-07-13 02:18:00,
2013-07-12 21:33:00,71.5,61.0,30.01,SE,126,3.0,3.0,70,0.00,,,0.00,weatherlink.com 1.10,2013-07-13 02:33:00,
2013-07-12 21:48:00,69.0,62.0,30.01,NE,47,0.0,1.0,77,0.00,,,0.00,weatherlink.com 1.10,2013-07-13 02:48:00,
2013-07-12 22:33:00,67.1,61.0,30.02,NE,48,0.0,0.0,81,0.00,,,0.00,weatherlink.com 1.10,2013-07-13 03:33:00,
2013-07-12 22:48:00,66.5,61.0,30.02,NE,47,1.0,2.0,83,0.00,,,0.00,weatherlink.com 1.10,2013-07-13 03:48:00,
2013-07-12 23:03:00,66.4,61.0,30.02,NE,48,0.0,0.0,83,0.00,,,0.00,weatherlink.com 1.10,2013-07-13 04:03:00,
2013-07-12 23:18:00,65.8,61.0,30.02,NE,48,1.0,2.0,84,0.00,,,0.00,weatherlink.com 1.10,2013-07-13 04:18:00,
2013-07-12 23:33:00,65.5,61.0,30.02,NE,48,0.0,1.0,85,0.00,,,0.00,weatherlink.com 1.10,2013-07-13 04:33:00,
2013-07-12 23:48:00,64.9,61.0,30.02,NE,47,0.0,2.0,86,0.00,,,0.00,weatherlink.com 1.10,2013-07-13 04:48:00,